LYH weather

La Yesca de Hermosillo Airport
Hermosillo, Sonora, Mexico

Public forecast

Using degrees Celsius for public forecast. Weather courtesy of forecast.io.

METAR (pilot weather report)

Closest report is General Ignacio P. Garcia International Airport, 5.4 nm (10.0 km) N. Retrieved 2019/05/22 10:40 UTC (41 minutes ago):

MMHO 221040Z 00000KT 10SM SKC 16/10 A2976 RMK HZY

TAF (pilot weather forecast)

Forecast is more than 12 hours old.

Closest forecast is General Ignacio P. Garcia International Airport, 5.4 nm (10.0 km) N. Retrieved 2019/05/21 18:12 UTC (17 hours ago):

TAF MMHO 211705Z 2118/2218 24010KT P6SM SCT200 FM220300 00000KT P6SM BKN200